Terminal Aerodrome Forecast
Issued by NWS

Home | Current Version | Previous Version | Text Only | Print | Product List | Glossary On
Versions: 1 2 3 4 5 6 7 8 9 10 11 12 13 14 15 16 17 18 19 20 21 22 23 24 25 26 27 28
000
FTUS45 KPSR 150836 AAA
TAFPHX
TAF AMD
KPHX 150836Z 1509/1612 36008KT P6SM SKC WS010/06030KT
      TEMPO 1509/1512 24005KT
     FM151200 06008KT P6SM SKC
     FM152100 VRB03KT P6SM FEW250
     FM160300 12004KT P6SM FEW250=

USA.gov is the U.S. government's official web portal to all federal, state and local government web resources and services.